KSGU/SGU METAR and TAF weather

Enter ICAO airport designator
Station Type Date Time Source
KSGU METAR 2021/01/22 06:56 UTC NOAA

KSGU 220656Z AUTO 10005KT 10SM CLR 07/M01 A3001 RMK AO2 SLP159 T00721011 401560028


Station Type Date Time Source
KSGU Decoded METAR 2021/01/22 06:56 UTC NOAA

St George, St George Municipal Airport, UT, United States (KSGU) 37-05N 113-36W
Jan 22, 2021 - 01:56 AM EST / 2021.01.22 0656 UTC
Wind: from the E (100 degrees) at 6 MPH (5 KT):0
Visibility: 10 mile(s):0
Sky conditions: clear
Temperature: 45.0 F (7.2 C)
Dew Point: 30.0 F (-1.1 C)
Relative Humidity: 55%
Pressure (altimeter): 30.01 in. Hg (1016 hPa)
ob: KSGU 220656Z AUTO 10005KT 10SM CLR 07/M01 A3001 RMK AO2 SLP159 T00721011 401560028
cycle: 7

Station Type Date Time Source
KSGU TAF 2021/01/22 06:42 UTC NOAA

TAF KSGU 220540Z 2206/2306 16004KT P6SM FEW080 BKN150
FM221700 20010G22KT P6SM SCT040 BKN080
FM222000 21012G20KT P6SM -SHRA SCT020 BKN040

Example: see airport list